createdAt,value
2022-11-16T00:00:28.158Z,6.89
2022-11-16T00:03:33.396Z,6.92
2022-11-16T00:06:37.403Z,6.94
2022-11-16T00:09:40.817Z,6.91
2022-11-16T00:12:43.933Z,6.95
2022-11-16T00:15:57.166Z,6.96
2022-11-16T00:19:04.234Z,6.97
2022-11-16T00:22:07.365Z,6.98
2022-11-16T00:25:11.329Z,6.97
2022-11-16T00:28:14.733Z,6.89
2022-11-16T00:31:17.611Z,6.92
2022-11-16T00:34:22.119Z,6.94
2022-11-16T00:37:24.998Z,6.93
2022-11-16T00:40:28.263Z,6.94
2022-11-16T00:43:31.134Z,6.94
2022-11-16T00:46:34.358Z,6.96
2022-11-16T00:49:38.601Z,6.99
2022-11-16T00:52:41.724Z,6.97
2022-11-16T00:55:46.087Z,6.97
2022-11-16T00:58:50.179Z,6.94
2022-11-16T01:01:53.145Z,6.98
2022-11-16T01:04:57.767Z,6.96
2022-11-16T01:08:00.740Z,6.94
2022-11-16T01:11:24.681Z,6.99
2022-11-16T01:14:27.492Z,6.97
2022-11-16T01:17:30.650Z,6.95
2022-11-16T01:20:33.600Z,6.99
2022-11-16T01:23:36.826Z,7.04
2022-11-16T01:26:40.127Z,6.98
2022-11-16T01:29:43.619Z,7.00
2022-11-16T01:32:46.553Z,6.92
2022-11-16T01:35:50.294Z,6.88
2022-11-16T01:38:53.295Z,6.90
2022-11-16T01:41:57.148Z,6.87
2022-11-16T01:45:19.354Z,6.90
2022-11-16T01:48:26.736Z,6.99
2022-11-16T01:51:30.260Z,6.99
2022-11-16T01:54:37.113Z,7.03
2022-11-16T01:57:43.076Z,7.06
2022-11-16T02:00:46.556Z,6.99
2022-11-16T02:03:50.720Z,7.01
2022-11-16T02:06:59.940Z,7.04
2022-11-16T02:10:16.105Z,7.01
2022-11-16T02:13:46.280Z,6.98
2022-11-16T02:17:06.310Z,6.96
2022-11-16T02:20:54.536Z,6.93
2022-11-16T02:24:19.390Z,6.98
2022-11-16T02:27:30.746Z,6.96
2022-11-16T02:30:35.862Z,6.99
2022-11-16T02:33:41.430Z,6.99
2022-11-16T02:36:47.423Z,6.95
2022-11-16T02:39:54.953Z,6.90
2022-11-16T02:43:03.897Z,7.00
2022-11-16T02:46:11.802Z,6.96
2022-11-16T02:49:18.574Z,6.91
2022-11-16T02:52:22.884Z,6.91
2022-11-16T02:55:27.816Z,7.03
2022-11-16T02:58:31.568Z,6.99
2022-11-16T03:01:38.600Z,6.96
2022-11-16T03:04:44.439Z,6.93
2022-11-16T03:07:58.397Z,7.01
2022-11-16T03:11:23.319Z,7.03
2022-11-16T03:14:42.331Z,7.01
2022-11-16T03:17:48.327Z,7.00
2022-11-16T03:20:54.269Z,7.07
2022-11-16T03:23:57.801Z,6.98
2022-11-16T03:27:07.299Z,6.92
2022-11-16T03:30:10.269Z,6.92
2022-11-16T03:33:18.699Z,6.80
2022-11-16T03:36:33.749Z,6.97
2022-11-16T03:39:39.643Z,6.89
2022-11-16T03:42:45.035Z,6.91
2022-11-16T03:45:50.508Z,6.92
2022-11-16T03:48:59.525Z,6.86
2022-11-16T03:52:03.052Z,6.82
2022-11-16T03:55:08.355Z,6.85
2022-11-16T03:58:13.247Z,6.81
2022-11-16T04:01:16.435Z,6.90
2022-11-16T04:04:40.562Z,6.96
2022-11-16T04:08:03.527Z,7.03
2022-11-16T04:11:30.832Z,7.00
2022-11-16T04:14:52.457Z,7.00
2022-11-16T04:18:15.126Z,7.01
2022-11-16T04:21:44.120Z,7.05
2022-11-16T04:24:51.032Z,7.08
2022-11-16T04:28:13.347Z,7.00
2022-11-16T04:31:36.395Z,6.90
2022-11-16T04:34:58.258Z,6.94
2022-11-16T04:38:02.212Z,6.92
2022-11-16T04:41:05.561Z,6.92
2022-11-16T04:44:08.898Z,6.89
2022-11-16T04:47:12.959Z,6.78
2022-11-16T04:50:17.952Z,6.85
2022-11-16T04:53:23.435Z,6.92
2022-11-16T04:56:29.231Z,6.98
2022-11-16T04:59:32.341Z,7.01
2022-11-16T05:02:36.695Z,6.99
2022-11-16T05:05:39.668Z,6.99
2022-11-16T05:08:43.150Z,6.97
2022-11-16T05:11:46.150Z,7.03
2022-11-16T05:14:49.651Z,6.98
2022-11-16T05:17:55.043Z,6.99
2022-11-16T05:21:01.782Z,7.04
2022-11-16T05:24:24.407Z,7.07
2022-11-16T05:27:29.433Z,7.07
2022-11-16T05:30:33.563Z,7.05
2022-11-16T05:33:37.693Z,7.08
2022-11-16T05:36:40.684Z,7.13
2022-11-16T05:39:44.577Z,7.10
2022-11-16T05:42:49.351Z,7.14
2022-11-16T05:45:53.524Z,7.16
2022-11-16T05:48:56.945Z,7.12
2022-11-16T05:52:00.601Z,7.08
2022-11-16T05:55:04.623Z,7.09
2022-11-16T05:58:09.570Z,7.08
2022-11-16T06:01:13.563Z,7.05
2022-11-16T06:04:24.158Z,6.96
2022-11-16T06:07:27.910Z,7.06
2022-11-16T06:10:32.123Z,7.05
2022-11-16T06:13:35.567Z,7.03
2022-11-16T06:16:39.114Z,6.97
2022-11-16T06:19:42.484Z,7.04
2022-11-16T06:22:45.827Z,7.06
2022-11-16T06:25:54.231Z,6.99
2022-11-16T06:28:58.508Z,6.92
2022-11-16T06:32:03.141Z,6.97
2022-11-16T06:35:06.959Z,7.09
2022-11-16T06:38:10.421Z,7.08
2022-11-16T06:41:13.786Z,7.01
2022-11-16T06:44:16.990Z,7.00
2022-11-16T06:47:21.353Z,7.14
2022-11-16T06:50:24.432Z,7.13
2022-11-16T06:53:29.659Z,7.28
2022-11-16T06:56:35.264Z,7.26
2022-11-16T06:59:39.895Z,7.31
2022-11-16T07:02:44.631Z,7.26
2022-11-16T07:05:49.078Z,7.35
2022-11-16T07:08:52.417Z,7.15
2022-11-16T07:11:57.949Z,7.20
2022-11-16T07:15:00.884Z,7.36
2022-11-16T07:18:08.530Z,7.19
2022-11-16T07:21:15.286Z,7.26
2022-11-16T07:24:19.057Z,7.30
2022-11-16T07:27:22.981Z,7.42
2022-11-16T07:30:26.893Z,7.47
2022-11-16T07:33:30.434Z,7.60
2022-11-16T07:36:36.484Z,7.57
2022-11-16T07:39:39.396Z,7.62
2022-11-16T07:42:45.511Z,7.71
2022-11-16T07:45:49.488Z,7.75
2022-11-16T07:48:52.698Z,7.78
2022-11-16T07:51:58.616Z,7.72
2022-11-16T07:55:06.148Z,7.78
2022-11-16T07:58:09.178Z,7.89
2022-11-16T08:01:15.014Z,7.99
2022-11-16T08:04:18.844Z,8.07
2022-11-16T08:07:21.966Z,8.17
2022-11-16T08:10:26.125Z,8.16
2022-11-16T08:13:32.227Z,8.19
2022-11-16T08:16:35.628Z,8.06
2022-11-16T08:19:40.371Z,8.14
2022-11-16T08:22:45.374Z,8.16
2022-11-16T08:25:48.306Z,8.11
2022-11-16T08:28:53.919Z,7.93
2022-11-16T08:31:59.228Z,8.02
2022-11-16T08:35:03.746Z,8.08
2022-11-16T08:38:06.648Z,8.14
2022-11-16T08:41:10.172Z,8.11
2022-11-16T08:44:13.294Z,8.11
2022-11-16T08:47:19.420Z,8.30
2022-11-16T08:50:22.525Z,8.39
2022-11-16T08:53:26.095Z,8.44
2022-11-16T08:56:30.346Z,8.44
2022-11-16T08:59:33.632Z,8.55
2022-11-16T09:02:37.482Z,8.56
2022-11-16T09:05:42.655Z,8.59
2022-11-16T09:08:46.732Z,8.65
2022-11-16T09:11:52.612Z,8.52
2022-11-16T09:14:55.502Z,8.51
2022-11-16T09:17:58.697Z,8.48
2022-11-16T09:21:01.531Z,8.42
2022-11-16T09:24:06.308Z,8.39
2022-11-16T09:27:09.229Z,8.48
2022-11-16T09:30:13.821Z,8.46
2022-11-16T09:33:16.838Z,8.39
2022-11-16T09:36:21.470Z,8.38
2022-11-16T09:39:30.937Z,8.54
2022-11-16T09:43:01.190Z,8.52
2022-11-16T09:46:32.358Z,8.61
2022-11-16T09:49:42.083Z,8.54
2022-11-16T09:52:46.852Z,8.72
2022-11-16T09:55:53.716Z,8.68
2022-11-16T09:59:01.894Z,8.71
2022-11-16T10:02:23.489Z,8.66
2022-11-16T10:05:31.808Z,8.57
2022-11-16T10:08:49.568Z,8.54
2022-11-16T10:12:01.310Z,8.57
2022-11-16T10:15:28.458Z,8.69
2022-11-16T10:18:48.311Z,8.60
2022-11-16T10:22:30.253Z,8.72
2022-11-16T10:25:39.244Z,8.78
2022-11-16T10:29:01.307Z,8.94
2022-11-16T10:32:09.951Z,8.97
2022-11-16T10:35:12.752Z,9.18
2022-11-16T10:38:19.448Z,9.20
2022-11-16T10:41:37.108Z,9.44
2022-11-16T10:45:12.068Z,9.62
2022-11-16T10:48:47.585Z,9.61
2022-11-16T10:51:50.784Z,9.76
2022-11-16T10:54:53.908Z,9.90
2022-11-16T10:58:06.072Z,9.99
2022-11-16T11:01:10.699Z,10.08
2022-11-16T11:04:22.221Z,10.01
2022-11-16T11:07:40.347Z,10.23
2022-11-16T11:10:43.554Z,10.28
2022-11-16T11:13:46.475Z,10.42
2022-11-16T11:16:53.460Z,10.52
2022-11-16T11:20:00.020Z,10.45
2022-11-16T11:23:12.995Z,10.38
2022-11-16T11:26:38.839Z,10.43
2022-11-16T11:29:44.967Z,10.38
2022-11-16T11:32:48.344Z,10.23
2022-11-16T11:36:04.674Z,10.11
2022-11-16T11:39:35.937Z,9.93
2022-11-16T11:42:44.154Z,9.84
2022-11-16T11:45:57.050Z,9.68
2022-11-16T11:49:05.228Z,9.59
2022-11-16T11:52:19.821Z,9.52
2022-11-16T11:55:23.354Z,9.36
2022-11-16T11:58:31.562Z,9.22
2022-11-16T12:01:44.514Z,9.30
2022-11-16T12:04:57.306Z,9.36
2022-11-16T12:08:31.122Z,9.22
2022-11-16T12:11:37.220Z,9.13
2022-11-16T12:14:59.299Z,9.10
2022-11-16T12:18:13.242Z,9.06
2022-11-16T12:21:23.073Z,8.95
2022-11-16T12:24:56.857Z,8.94
2022-11-16T12:28:34.077Z,8.91
2022-11-16T12:32:06.104Z,8.81
2022-11-16T12:35:24.686Z,8.80
2022-11-16T12:38:30.742Z,8.81
2022-11-16T12:41:56.900Z,8.81
2022-11-16T12:45:18.665Z,8.80
2022-11-16T12:48:22.212Z,8.78
2022-11-16T12:51:32.253Z,8.77
2022-11-16T12:55:11.023Z,8.71
2022-11-16T12:58:10.839Z,8.74
2022-11-16T13:01:23.015Z,8.54
2022-11-16T13:04:29.857Z,8.54
2022-11-16T13:07:41.315Z,8.51
2022-11-16T13:10:47.199Z,8.47
2022-11-16T13:13:53.825Z,8.47
2022-11-16T13:16:58.313Z,8.42
2022-11-16T13:20:33.151Z,8.42
2022-11-16T13:24:18.710Z,8.39
2022-11-16T13:27:38.358Z,8.44
2022-11-16T13:31:00.971Z,8.47
2022-11-16T13:34:07.423Z,8.47
2022-11-16T13:37:39.735Z,8.55
2022-11-16T13:40:42.665Z,8.40
2022-11-16T13:43:49.275Z,8.32
2022-11-16T13:47:05.096Z,8.13
2022-11-16T13:50:17.817Z,8.13
2022-11-16T13:54:38.025Z,8.30
2022-11-16T13:56:50.342Z,8.30
2022-11-16T14:00:03.952Z,8.40
2022-11-16T14:03:15.890Z,8.25
2022-11-16T14:06:22.368Z,8.20
2022-11-16T14:09:46.273Z,8.25
2022-11-16T14:12:54.450Z,8.25
2022-11-16T14:16:19.746Z,8.23
2022-11-16T14:19:47.457Z,8.30
2022-11-16T14:23:21.341Z,8.35
2022-11-16T14:26:47.126Z,8.31
2022-11-16T14:30:16.312Z,8.32
2022-11-16T14:33:31.571Z,8.33
2022-11-16T14:36:43.784Z,8.31
2022-11-16T14:39:47.079Z,8.29
2022-11-16T14:43:16.466Z,8.29
2022-11-16T14:46:26.829Z,8.27
2022-11-16T14:49:32.138Z,8.25
2022-11-16T14:52:40.773Z,8.23
2022-11-16T14:55:46.079Z,8.15
2022-11-16T14:58:54.488Z,8.13
2022-11-16T15:01:58.072Z,8.11
2022-11-16T15:05:01.608Z,8.15
2022-11-16T15:08:14.030Z,8.07
2022-11-16T15:11:59.604Z,8.12
2022-11-16T15:15:29.784Z,8.07
2022-11-16T15:18:32.870Z,8.06
2022-11-16T15:21:35.612Z,8.02
2022-11-16T15:24:38.899Z,8.01
2022-11-16T15:27:42.224Z,8.02
2022-11-16T15:30:48.534Z,7.96
2022-11-16T15:33:52.139Z,7.96
2022-11-16T15:36:55.500Z,7.99
2022-11-16T15:39:59.123Z,7.97
2022-11-16T15:43:04.961Z,7.96
2022-11-16T15:46:08.753Z,7.94
2022-11-16T15:49:28.066Z,7.91
2022-11-16T15:52:45.233Z,7.95
2022-11-16T15:55:50.232Z,7.93
2022-11-16T15:58:55.079Z,7.97
2022-11-16T16:01:58.253Z,7.89
2022-11-16T16:05:02.834Z,7.91
2022-11-16T16:08:06.658Z,7.90
2022-11-16T16:11:11.139Z,7.89
2022-11-16T16:14:28.925Z,7.93
2022-11-16T16:17:32.573Z,7.91
2022-11-16T16:20:36.265Z,7.93
2022-11-16T16:23:48.306Z,7.94
2022-11-16T16:26:51.347Z,7.96
2022-11-16T16:29:57.311Z,7.91
2022-11-16T16:33:00.577Z,7.93
2022-11-16T16:36:04.415Z,7.95
2022-11-16T16:39:08.635Z,8.00
2022-11-16T16:42:13.948Z,8.04
2022-11-16T16:45:44.583Z,8.05
2022-11-16T16:48:47.933Z,8.07
2022-11-16T16:51:50.737Z,8.02
2022-11-16T16:54:53.898Z,8.09
2022-11-16T16:57:58.343Z,8.08
2022-11-16T17:01:05.002Z,8.11
2022-11-16T17:04:08.267Z,8.07
2022-11-16T17:07:11.493Z,8.02
2022-11-16T17:10:15.338Z,7.99
2022-11-16T17:13:18.574Z,7.99
2022-11-16T17:16:22.471Z,7.97
2022-11-16T17:19:25.596Z,7.96
2022-11-16T17:22:28.751Z,7.73
2022-11-16T17:25:33.703Z,7.96
2022-11-16T17:28:36.698Z,7.78
2022-11-16T17:31:44.250Z,7.79
2022-11-16T17:34:47.397Z,7.80
2022-11-16T17:37:51.802Z,7.90
2022-11-16T17:41:06.263Z,7.84
2022-11-16T17:44:10.089Z,7.81
2022-11-16T17:47:13.338Z,7.56
2022-11-16T17:50:18.214Z,7.56
2022-11-16T17:53:21.169Z,7.62
2022-11-16T17:56:26.965Z,7.78
2022-11-16T17:59:30.787Z,7.52
2022-11-16T18:02:34.287Z,7.81
2022-11-16T18:05:37.892Z,7.79
2022-11-16T18:12:00.671Z,7.60
2022-11-16T18:15:27.618Z,7.81
2022-11-16T18:18:27.768Z,7.64
2022-11-16T18:21:31.857Z,7.52
2022-11-16T18:24:35.967Z,7.72
2022-11-16T18:27:39.419Z,7.54
2022-11-16T18:30:43.348Z,7.64
2022-11-16T18:33:48.071Z,7.73
2022-11-16T18:36:52.097Z,7.54
2022-11-16T18:39:55.821Z,7.42
2022-11-16T18:42:59.461Z,7.46
2022-11-16T18:46:02.892Z,7.56
2022-11-16T18:49:06.887Z,7.58
2022-11-16T18:52:11.167Z,7.61
2022-11-16T18:55:16.310Z,7.50
2022-11-16T18:58:48.547Z,7.44
2022-11-16T19:01:45.159Z,7.56
2022-11-16T19:04:48.552Z,7.65
2022-11-16T19:07:52.038Z,7.64
2022-11-16T19:10:55.529Z,7.58
2022-11-16T19:14:07.996Z,7.47
2022-11-16T19:17:14.720Z,7.33
2022-11-16T19:20:18.466Z,7.52
2022-11-16T19:23:22.044Z,7.58
2022-11-16T19:26:27.330Z,7.54
2022-11-16T19:29:30.760Z,7.29
2022-11-16T19:32:35.684Z,7.40
2022-11-16T19:35:39.999Z,7.35
2022-11-16T19:38:45.063Z,7.45
2022-11-16T19:41:48.395Z,7.53
2022-11-16T19:44:52.082Z,7.53
2022-11-16T19:47:57.121Z,7.35
2022-11-16T19:51:06.739Z,7.35
2022-11-16T19:54:13.050Z,7.37
2022-11-16T19:57:20.915Z,7.38
2022-11-16T20:00:25.023Z,7.40
2022-11-16T20:03:28.704Z,7.37
2022-11-16T20:06:33.940Z,7.24
2022-11-16T20:09:37.440Z,7.45
2022-11-16T20:12:40.442Z,7.53
2022-11-16T20:15:43.985Z,7.45
2022-11-16T20:18:49.032Z,7.31
2022-11-16T20:21:53.500Z,7.33
2022-11-16T20:24:56.637Z,7.38
2022-11-16T20:28:01.517Z,7.51
2022-11-16T20:31:08.395Z,7.49
2022-11-16T20:34:14.874Z,7.56
2022-11-16T20:37:17.752Z,7.60
2022-11-16T20:40:21.466Z,7.63
2022-11-16T20:43:25.165Z,7.68
2022-11-16T20:46:30.991Z,7.73
2022-11-16T20:49:34.594Z,7.69
2022-11-16T20:52:42.411Z,7.74
2022-11-16T20:55:47.179Z,7.72
2022-11-16T20:58:50.484Z,7.68
2022-11-16T21:01:54.849Z,7.46
2022-11-16T21:05:00.494Z,7.35
2022-11-16T21:08:03.776Z,7.51
2022-11-16T21:11:15.252Z,7.51
2022-11-16T21:14:19.774Z,7.52
2022-11-16T21:17:22.973Z,7.55
2022-11-16T21:20:27.973Z,7.61
2022-11-16T21:23:33.671Z,7.55
2022-11-16T21:26:37.425Z,7.47
2022-11-16T21:29:40.528Z,7.59
2022-11-16T21:32:43.396Z,7.55
2022-11-16T21:35:46.639Z,7.38
2022-11-16T21:38:50.069Z,7.33
2022-11-16T21:41:53.747Z,7.36
2022-11-16T21:44:56.555Z,7.43
2022-11-16T21:48:00.863Z,7.39
2022-11-16T21:51:06.032Z,7.46
2022-11-16T21:54:09.186Z,7.41
2022-11-16T21:57:17.460Z,7.22
2022-11-16T22:00:20.947Z,7.40
2022-11-16T22:03:26.248Z,7.48
2022-11-16T22:06:48.708Z,7.56
2022-11-16T22:09:52.018Z,7.57
2022-11-16T22:12:55.064Z,7.56
2022-11-16T22:15:58.272Z,7.54
2022-11-16T22:19:01.174Z,7.58
2022-11-16T22:22:04.358Z,7.59
2022-11-16T22:25:08.827Z,7.57
2022-11-16T22:28:20.707Z,7.62
2022-11-16T22:31:24.399Z,7.56
2022-11-16T22:34:27.525Z,7.31
2022-11-16T22:37:31.125Z,7.49
2022-11-16T22:40:35.913Z,7.43
2022-11-16T22:43:39.355Z,7.43
2022-11-16T22:46:43.525Z,7.47
2022-11-16T22:49:46.259Z,7.42
2022-11-16T22:52:49.296Z,7.35
2022-11-16T22:55:51.927Z,7.32
2022-11-16T22:58:55.201Z,7.24
2022-11-16T23:01:58.040Z,7.28
2022-11-16T23:05:02.665Z,7.18
2022-11-16T23:08:06.211Z,7.10
2022-11-16T23:11:39.172Z,7.15
2022-11-16T23:15:00.627Z,7.13
2022-11-16T23:18:03.918Z,7.13
2022-11-16T23:21:25.422Z,7.06
2022-11-16T23:24:47.052Z,7.15
2022-11-16T23:28:04.554Z,7.03
2022-11-16T23:31:08.490Z,7.10
2022-11-16T23:34:11.476Z,7.12
2022-11-16T23:37:15.319Z,7.12
2022-11-16T23:40:18.276Z,7.05
2022-11-16T23:43:40.209Z,7.01
2022-11-16T23:46:43.614Z,6.89
2022-11-16T23:49:46.749Z,6.94
2022-11-16T23:52:49.567Z,6.82
2022-11-16T23:55:53.609Z,6.88
2022-11-16T23:58:58.595Z,6.73
